sensor_id;sensor_type;location;lat;lon;timestamp;temperature;humidity
46159;DHT22;31888;44.512;26.104;2023-07-20T00:01:13;25.40;93.50
46159;DHT22;31888;44.512;26.104;2023-07-20T00:03:54;25.30;93.40
46159;DHT22;31888;44.512;26.104;2023-07-20T00:06:18;25.40;93.20
46159;DHT22;31888;44.512;26.104;2023-07-20T00:08:42;25.40;93.40
46159;DHT22;31888;44.512;26.104;2023-07-20T00:11:06;25.50;93.40
46159;DHT22;31888;44.512;26.104;2023-07-20T00:13:29;25.50;93.30
46159;DHT22;31888;44.512;26.104;2023-07-20T00:15:55;25.50;93.90
46159;DHT22;31888;44.512;26.104;2023-07-20T00:18:18;25.50;93.80
46159;DHT22;31888;44.512;26.104;2023-07-20T00:20:43;25.40;93.90
46159;DHT22;31888;44.512;26.104;2023-07-20T00:23:07;25.40;93.90
46159;DHT22;31888;44.512;26.104;2023-07-20T00:25:31;25.50;93.90
46159;DHT22;31888;44.512;26.104;2023-07-20T00:27:55;25.40;94.00
46159;DHT22;31888;44.512;26.104;2023-07-20T00:30:19;25.40;93.90
46159;DHT22;31888;44.512;26.104;2023-07-20T00:32:44;25.40;94.20
46159;DHT22;31888;44.512;26.104;2023-07-20T00:35:08;25.40;94.10
46159;DHT22;31888;44.512;26.104;2023-07-20T00:37:33;25.40;94.20
46159;DHT22;31888;44.512;26.104;2023-07-20T00:39:56;25.40;93.70
46159;DHT22;31888;44.512;26.104;2023-07-20T00:42:20;25.50;93.20
46159;DHT22;31888;44.512;26.104;2023-07-20T00:44:46;25.50;93.10
46159;DHT22;31888;44.512;26.104;2023-07-20T00:47:10;25.60;93.00
46159;DHT22;31888;44.512;26.104;2023-07-20T00:49:35;25.60;93.00
46159;DHT22;31888;44.512;26.104;2023-07-20T00:52:00;25.60;93.30
46159;DHT22;31888;44.512;26.104;2023-07-20T00:54:24;25.60;93.50
46159;DHT22;31888;44.512;26.104;2023-07-20T00:56:49;25.60;93.80
46159;DHT22;31888;44.512;26.104;2023-07-20T00:59:14;25.60;94.20
46159;DHT22;31888;44.512;26.104;2023-07-20T01:01:37;25.60;95.50
46159;DHT22;31888;44.512;26.104;2023-07-20T01:04:01;25.60;95.70
46159;DHT22;31888;44.512;26.104;2023-07-20T01:06:35;25.60;95.70
46159;DHT22;31888;44.512;26.104;2023-07-20T01:09:08;25.50;95.80
46159;DHT22;31888;44.512;26.104;2023-07-20T01:11:39;25.50;96.30
46159;DHT22;31888;44.512;26.104;2023-07-20T01:14:07;25.50;97.00
46159;DHT22;31888;44.512;26.104;2023-07-20T01:16:32;25.60;97.70
46159;DHT22;31888;44.512;26.104;2023-07-20T01:18:56;25.70;98.10
46159;DHT22;31888;44.512;26.104;2023-07-20T01:21:24;25.60;98.90
46159;DHT22;31888;44.512;26.104;2023-07-20T01:27:20;25.10;99.90
46159;DHT22;31888;44.512;26.104;2023-07-20T01:30:03;24.50;99.90
46159;DHT22;31888;44.512;26.104;2023-07-20T01:32:33;24.50;99.90
46159;DHT22;31888;44.512;26.104;2023-07-20T01:34:59;24.50;99.90
46159;DHT22;31888;44.512;26.104;2023-07-20T01:37:23;24.20;99.90
46159;DHT22;31888;44.512;26.104;2023-07-20T01:39:50;24.00;99.90
46159;DHT22;31888;44.512;26.104;2023-07-20T01:42:17;23.90;99.90
46159;DHT22;31888;44.512;26.104;2023-07-20T01:44:41;23.90;99.90
46159;DHT22;31888;44.512;26.104;2023-07-20T01:47:06;23.80;99.90
46159;DHT22;31888;44.512;26.104;2023-07-20T01:49:31;23.70;99.90
46159;DHT22;31888;44.512;26.104;2023-07-20T01:51:55;23.70;99.90
46159;DHT22;31888;44.512;26.104;2023-07-20T01:54:19;23.70;99.90
46159;DHT22;31888;44.512;26.104;2023-07-20T01:56:43;23.80;99.90
46159;DHT22;31888;44.512;26.104;2023-07-20T01:59:07;23.80;99.90
46159;DHT22;31888;44.512;26.104;2023-07-20T02:01:31;23.90;99.90
46159;DHT22;31888;44.512;26.104;2023-07-20T02:03:56;23.90;99.90
46159;DHT22;31888;44.512;26.104;2023-07-20T02:06:21;23.90;99.90
46159;DHT22;31888;44.512;26.104;2023-07-20T02:08:45;23.90;99.90
46159;DHT22;31888;44.512;26.104;2023-07-20T02:11:09;24.00;99.90
46159;DHT22;31888;44.512;26.104;2023-07-20T02:13:34;24.00;99.90
46159;DHT22;31888;44.512;26.104;2023-07-20T02:15:58;23.90;99.90
46159;DHT22;31888;44.512;26.104;2023-07-20T02:18:22;23.80;99.90
46159;DHT22;31888;44.512;26.104;2023-07-20T02:20:46;23.80;99.90
46159;DHT22;31888;44.512;26.104;2023-07-20T02:23:11;23.70;99.90
46159;DHT22;31888;44.512;26.104;2023-07-20T02:25:35;23.60;99.90
46159;DHT22;31888;44.512;26.104;2023-07-20T02:27:59;23.50;99.90
46159;DHT22;31888;44.512;26.104;2023-07-20T02:30:23;23.40;99.90
46159;DHT22;31888;44.512;26.104;2023-07-20T02:32:47;23.50;99.90
46159;DHT22;31888;44.512;26.104;2023-07-20T02:35:11;23.50;99.90
46159;DHT22;31888;44.512;26.104;2023-07-20T02:37:35;23.60;99.90
46159;DHT22;31888;44.512;26.104;2023-07-20T02:40:00;23.60;99.90
46159;DHT22;31888;44.512;26.104;2023-07-20T02:42:26;23.60;99.90
46159;DHT22;31888;44.512;26.104;2023-07-20T02:44:50;23.50;99.90
46159;DHT22;31888;44.512;26.104;2023-07-20T02:47:14;23.50;99.90
46159;DHT22;31888;44.512;26.104;2023-07-20T02:49:38;23.40;99.90
46159;DHT22;31888;44.512;26.104;2023-07-20T02:52:01;23.30;99.90
46159;DHT22;31888;44.512;26.104;2023-07-20T02:54:25;23.30;99.90
46159;DHT22;31888;44.512;26.104;2023-07-20T02:56:50;23.30;99.90
46159;DHT22;31888;44.512;26.104;2023-07-20T02:59:14;23.30;99.90
46159;DHT22;31888;44.512;26.104;2023-07-20T03:01:38;23.40;99.90
46159;DHT22;31888;44.512;26.104;2023-07-20T03:04:04;23.50;99.90
46159;DHT22;31888;44.512;26.104;2023-07-20T03:06:31;23.50;99.90
46159;DHT22;31888;44.512;26.104;2023-07-20T03:08:58;23.50;99.90
46159;DHT22;31888;44.512;26.104;2023-07-20T03:11:22;23.60;99.90
46159;DHT22;31888;44.512;26.104;2023-07-20T03:13:47;23.40;99.90
46159;DHT22;31888;44.512;26.104;2023-07-20T03:16:13;23.40;99.90
46159;DHT22;31888;44.512;26.104;2023-07-20T03:18:40;23.50;99.90
46159;DHT22;31888;44.512;26.104;2023-07-20T03:21:03;23.50;99.90
46159;DHT22;31888;44.512;26.104;2023-07-20T03:23:27;23.50;99.90
46159;DHT22;31888;44.512;26.104;2023-07-20T03:25:51;23.50;99.90
46159;DHT22;31888;44.512;26.104;2023-07-20T03:28:18;23.60;99.90
46159;DHT22;31888;44.512;26.104;2023-07-20T03:30:43;23.70;99.90
46159;DHT22;31888;44.512;26.104;2023-07-20T03:33:07;23.90;99.90
46159;DHT22;31888;44.512;26.104;2023-07-20T03:35:31;24.10;99.90
46159;DHT22;31888;44.512;26.104;2023-07-20T03:37:55;24.10;99.90
46159;DHT22;31888;44.512;26.104;2023-07-20T03:40:19;24.20;99.90
46159;DHT22;31888;44.512;26.104;2023-07-20T03:42:43;24.20;99.90
46159;DHT22;31888;44.512;26.104;2023-07-20T03:45:09;24.30;99.90
46159;DHT22;31888;44.512;26.104;2023-07-20T03:47:34;24.20;99.90
46159;DHT22;31888;44.512;26.104;2023-07-20T03:49:58;24.20;99.90
46159;DHT22;31888;44.512;26.104;2023-07-20T03:52:22;24.30;99.90
46159;DHT22;31888;44.512;26.104;2023-07-20T03:54:46;24.30;99.90
46159;DHT22;31888;44.512;26.104;2023-07-20T03:57:10;24.30;99.90
46159;DHT22;31888;44.512;26.104;2023-07-20T03:59:33;24.20;99.90
46159;DHT22;31888;44.512;26.104;2023-07-20T04:01:57;24.40;99.90
46159;DHT22;31888;44.512;26.104;2023-07-20T04:04:22;24.30;99.90
46159;DHT22;31888;44.512;26.104;2023-07-20T04:06:46;24.60;99.90
46159;DHT22;31888;44.512;26.104;2023-07-20T04:09:11;24.70;99.90
46159;DHT22;31888;44.512;26.104;2023-07-20T04:11:35;24.80;99.90
46159;DHT22;31888;44.512;26.104;2023-07-20T04:13:59;24.80;99.90
46159;DHT22;31888;44.512;26.104;2023-07-20T04:16:23;24.80;99.90
46159;DHT22;31888;44.512;26.104;2023-07-20T04:18:47;24.90;99.90
46159;DHT22;31888;44.512;26.104;2023-07-20T04:21:13;25.10;99.90
46159;DHT22;31888;44.512;26.104;2023-07-20T04:23:37;25.40;99.90
46159;DHT22;31888;44.512;26.104;2023-07-20T04:26:01;25.80;99.90
46159;DHT22;31888;44.512;26.104;2023-07-20T04:28:25;26.40;99.90
46159;DHT22;31888;44.512;26.104;2023-07-20T04:30:49;27.00;99.90
46159;DHT22;31888;44.512;26.104;2023-07-20T04:33:14;27.60;99.90
46159;DHT22;31888;44.512;26.104;2023-07-20T04:35:48;28.30;99.90
46159;DHT22;31888;44.512;26.104;2023-07-20T04:38:23;29.00;99.80
46159;DHT22;31888;44.512;26.104;2023-07-20T04:40:57;29.80;98.20
46159;DHT22;31888;44.512;26.104;2023-07-20T04:43:21;30.40;96.80
46159;DHT22;31888;44.512;26.104;2023-07-20T04:45:45;30.80;96.20
46159;DHT22;31888;44.512;26.104;2023-07-20T04:48:10;30.40;96.10
46159;DHT22;31888;44.512;26.104;2023-07-20T04:50:40;30.30;95.80
46159;DHT22;31888;44.512;26.104;2023-07-20T04:53:04;30.40;95.40
46159;DHT22;31888;44.512;26.104;2023-07-20T04:55:30;30.30;95.40
46159;DHT22;31888;44.512;26.104;2023-07-20T04:57:57;30.10;95.50
46159;DHT22;31888;44.512;26.104;2023-07-20T05:00:21;29.90;95.60
46159;DHT22;31888;44.512;26.104;2023-07-20T05:02:45;29.50;95.90
46159;DHT22;31888;44.512;26.104;2023-07-20T05:05:10;28.70;96.90
46159;DHT22;31888;44.512;26.104;2023-07-20T05:07:34;28.50;97.20
46159;DHT22;31888;44.512;26.104;2023-07-20T05:09:57;27.90;98.20
46159;DHT22;31888;44.512;26.104;2023-07-20T05:12:23;27.80;98.40
46159;DHT22;31888;44.512;26.104;2023-07-20T05:14:47;27.40;99.00
46159;DHT22;31888;44.512;26.104;2023-07-20T05:17:10;27.20;99.30
46159;DHT22;31888;44.512;26.104;2023-07-20T05:19:34;27.20;99.40
46159;DHT22;31888;44.512;26.104;2023-07-20T05:21:58;27.40;99.30
46159;DHT22;31888;44.512;26.104;2023-07-20T05:24:22;27.10;99.80
46159;DHT22;31888;44.512;26.104;2023-07-20T05:26:46;27.30;99.80
46159;DHT22;31888;44.512;26.104;2023-07-20T05:29:11;27.60;99.20
46159;DHT22;31888;44.512;26.104;2023-07-20T05:31:35;27.80;99.00
46159;DHT22;31888;44.512;26.104;2023-07-20T05:33:59;27.90;99.00
46159;DHT22;31888;44.512;26.104;2023-07-20T05:36:24;28.10;98.50
46159;DHT22;31888;44.512;26.104;2023-07-20T05:38:48;28.10;98.20
46159;DHT22;31888;44.512;26.104;2023-07-20T05:41:11;28.40;97.80
46159;DHT22;31888;44.512;26.104;2023-07-20T05:43:35;28.50;97.40
46159;DHT22;31888;44.512;26.104;2023-07-20T05:46:00;28.80;96.70
46159;DHT22;31888;44.512;26.104;2023-07-20T05:48:24;29.10;96.10
46159;DHT22;31888;44.512;26.104;2023-07-20T05:50:48;29.50;95.40
46159;DHT22;31888;44.512;26.104;2023-07-20T05:53:12;29.60;95.30
46159;DHT22;31888;44.512;26.104;2023-07-20T05:55:36;29.60;95.20
46159;DHT22;31888;44.512;26.104;2023-07-20T05:58:01;29.40;95.30
46159;DHT22;31888;44.512;26.104;2023-07-20T06:00:26;29.40;94.90
46159;DHT22;31888;44.512;26.104;2023-07-20T06:02:51;29.20;95.20
46159;DHT22;31888;44.512;26.104;2023-07-20T06:05:15;29.50;94.90
46159;DHT22;31888;44.512;26.104;2023-07-20T06:07:39;29.80;94.50
46159;DHT22;31888;44.512;26.104;2023-07-20T06:10:04;30.40;94.50
46159;DHT22;31888;44.512;26.104;2023-07-20T06:12:28;31.00;93.90
46159;DHT22;31888;44.512;26.104;2023-07-20T06:14:52;32.30;92.60
46159;DHT22;31888;44.512;26.104;2023-07-20T06:17:16;33.40;90.70
46159;DHT22;31888;44.512;26.104;2023-07-20T06:19:41;34.40;88.90
46159;DHT22;31888;44.512;26.104;2023-07-20T06:22:06;35.90;86.40
46159;DHT22;31888;44.512;26.104;2023-07-20T06:24:29;36.90;82.20
46159;DHT22;31888;44.512;26.104;2023-07-20T06:26:53;38.70;77.50
46159;DHT22;31888;44.512;26.104;2023-07-20T06:29:17;39.20;75.10
46159;DHT22;31888;44.512;26.104;2023-07-20T06:31:41;40.70;71.80
46159;DHT22;31888;44.512;26.104;2023-07-20T06:34:05;42.20;69.10
46159;DHT22;31888;44.512;26.104;2023-07-20T06:36:30;41.40;68.10
46159;DHT22;31888;44.512;26.104;2023-07-20T06:38:54;41.70;67.30
46159;DHT22;31888;44.512;26.104;2023-07-20T06:41:21;41.40;66.50
46159;DHT22;31888;44.512;26.104;2023-07-20T06:43:48;40.60;67.40
46159;DHT22;31888;44.512;26.104;2023-07-20T06:46:11;39.80;67.60
46159;DHT22;31888;44.512;26.104;2023-07-20T06:48:35;38.80;69.40
46159;DHT22;31888;44.512;26.104;2023-07-20T06:51:19;38.40;70.00
46159;DHT22;31888;44.512;26.104;2023-07-20T06:53:45;37.70;71.20
46159;DHT22;31888;44.512;26.104;2023-07-20T06:56:08;37.40;71.80
46159;DHT22;31888;44.512;26.104;2023-07-20T06:58:33;37.30;72.80
46159;DHT22;31888;44.512;26.104;2023-07-20T07:00:57;38.50;71.60
46159;DHT22;31888;44.512;26.104;2023-07-20T07:03:21;39.80;69.40
46159;DHT22;31888;44.512;26.104;2023-07-20T07:05:54;40.60;67.70
46159;DHT22;31888;44.512;26.104;2023-07-20T07:08:18;39.80;67.60
46159;DHT22;31888;44.512;26.104;2023-07-20T07:10:43;39.50;68.20
46159;DHT22;31888;44.512;26.104;2023-07-20T07:13:07;40.20;67.30
46159;DHT22;31888;44.512;26.104;2023-07-20T07:15:31;40.60;66.20
46159;DHT22;31888;44.512;26.104;2023-07-20T07:17:55;38.70;68.60
46159;DHT22;31888;44.512;26.104;2023-07-20T07:20:20;38.50;69.20
46159;DHT22;31888;44.512;26.104;2023-07-20T07:22:43;39.50;68.30
46159;DHT22;31888;44.512;26.104;2023-07-20T07:25:09;40.80;66.10
46159;DHT22;31888;44.512;26.104;2023-07-20T07:27:34;42.00;64.70
46159;DHT22;31888;44.512;26.104;2023-07-20T07:29:58;40.70;65.80
46159;DHT22;31888;44.512;26.104;2023-07-20T07:32:22;38.40;68.80
46159;DHT22;31888;44.512;26.104;2023-07-20T07:34:46;38.20;69.90
46159;DHT22;31888;44.512;26.104;2023-07-20T07:37:11;38.40;69.70
46159;DHT22;31888;44.512;26.104;2023-07-20T07:39:35;38.90;68.60
46159;DHT22;31888;44.512;26.104;2023-07-20T07:41:58;39.20;67.90
46159;DHT22;31888;44.512;26.104;2023-07-20T07:44:24;39.40;66.50
46159;DHT22;31888;44.512;26.104;2023-07-20T07:46:48;39.30;66.70
46159;DHT22;31888;44.512;26.104;2023-07-20T07:49:15;40.80;64.80
46159;DHT22;31888;44.512;26.104;2023-07-20T07:51:41;41.10;63.40
46159;DHT22;31888;44.512;26.104;2023-07-20T07:54:05;41.50;63.40
46159;DHT22;31888;44.512;26.104;2023-07-20T07:56:28;41.90;62.20
46159;DHT22;31888;44.512;26.104;2023-07-20T07:58:52;42.40;61.30
46159;DHT22;31888;44.512;26.104;2023-07-20T08:01:18;42.40;61.20
46159;DHT22;31888;44.512;26.104;2023-07-20T08:03:42;42.00;60.40
46159;DHT22;31888;44.512;26.104;2023-07-20T08:06:08;41.60;61.30
46159;DHT22;31888;44.512;26.104;2023-07-20T08:08:32;41.30;61.10
46159;DHT22;31888;44.512;26.104;2023-07-20T08:10:56;41.30;59.10
46159;DHT22;31888;44.512;26.104;2023-07-20T08:13:20;40.50;61.40
46159;DHT22;31888;44.512;26.104;2023-07-20T08:15:51;39.50;62.40
46159;DHT22;31888;44.512;26.104;2023-07-20T08:18:16;39.30;64.30
46159;DHT22;31888;44.512;26.104;2023-07-20T08:20:43;39.60;64.70
46159;DHT22;31888;44.512;26.104;2023-07-20T08:23:07;38.40;65.50
46159;DHT22;31888;44.512;26.104;2023-07-20T08:25:32;38.10;65.90
46159;DHT22;31888;44.512;26.104;2023-07-20T08:27:55;37.50;67.30
46159;DHT22;31888;44.512;26.104;2023-07-20T08:30:21;37.10;66.60
46159;DHT22;31888;44.512;26.104;2023-07-20T08:32:45;37.10;66.60
46159;DHT22;31888;44.512;26.104;2023-07-20T08:35:11;37.30;67.30
46159;DHT22;31888;44.512;26.104;2023-07-20T08:37:37;37.10;67.60
46159;DHT22;31888;44.512;26.104;2023-07-20T08:40:01;37.00;68.00
46159;DHT22;31888;44.512;26.104;2023-07-20T08:42:31;36.40;68.10
46159;DHT22;31888;44.512;26.104;2023-07-20T08:44:55;36.40;68.10
46159;DHT22;31888;44.512;26.104;2023-07-20T08:47:20;36.40;68.60
46159;DHT22;31888;44.512;26.104;2023-07-20T08:49:48;36.60;68.90
46159;DHT22;31888;44.512;26.104;2023-07-20T08:52:13;36.40;68.80
46159;DHT22;31888;44.512;26.104;2023-07-20T08:54:37;36.10;69.70
46159;DHT22;31888;44.512;26.104;2023-07-20T08:57:04;35.80;70.00
46159;DHT22;31888;44.512;26.104;2023-07-20T08:59:29;35.70;70.10
46159;DHT22;31888;44.512;26.104;2023-07-20T09:01:53;36.10;69.20
46159;DHT22;31888;44.512;26.104;2023-07-20T09:04:19;35.90;69.60
46159;DHT22;31888;44.512;26.104;2023-07-20T09:06:43;36.10;69.50
46159;DHT22;31888;44.512;26.104;2023-07-20T09:09:08;36.10;69.40
46159;DHT22;31888;44.512;26.104;2023-07-20T09:11:33;36.20;69.40
46159;DHT22;31888;44.512;26.104;2023-07-20T09:14:04;35.70;69.60
46159;DHT22;31888;44.512;26.104;2023-07-20T09:16:28;35.60;69.80
46159;DHT22;31888;44.512;26.104;2023-07-20T09:18:52;35.30;69.80
46159;DHT22;31888;44.512;26.104;2023-07-20T09:21:17;35.10;70.30
46159;DHT22;31888;44.512;26.104;2023-07-20T09:23:41;35.20;70.80
46159;DHT22;31888;44.512;26.104;2023-07-20T09:26:11;35.40;70.20
46159;DHT22;31888;44.512;26.104;2023-07-20T09:28:41;35.50;69.90
46159;DHT22;31888;44.512;26.104;2023-07-20T09:31:16;35.40;69.50
46159;DHT22;31888;44.512;26.104;2023-07-20T09:33:41;35.60;69.80
46159;DHT22;31888;44.512;26.104;2023-07-20T09:36:22;35.40;68.70
46159;DHT22;31888;44.512;26.104;2023-07-20T09:39:06;35.20;69.40
46159;DHT22;31888;44.512;26.104;2023-07-20T09:41:39;35.10;70.30
46159;DHT22;31888;44.512;26.104;2023-07-20T09:44:07;35.10;70.60
46159;DHT22;31888;44.512;26.104;2023-07-20T09:46:42;35.00;70.90
46159;DHT22;31888;44.512;26.104;2023-07-20T09:49:08;35.00;70.50
46159;DHT22;31888;44.512;26.104;2023-07-20T09:51:36;35.20;70.50
46159;DHT22;31888;44.512;26.104;2023-07-20T09:54:01;35.50;69.10
46159;DHT22;31888;44.512;26.104;2023-07-20T09:56:27;35.60;69.80
46159;DHT22;31888;44.512;26.104;2023-07-20T09:58:53;35.70;69.40
46159;DHT22;31888;44.512;26.104;2023-07-20T10:01:20;35.70;69.60
46159;DHT22;31888;44.512;26.104;2023-07-20T10:03:47;35.60;69.10
46159;DHT22;31888;44.512;26.104;2023-07-20T10:06:15;35.30;70.80
46159;DHT22;31888;44.512;26.104;2023-07-20T10:08:41;35.40;68.90
46159;DHT22;31888;44.512;26.104;2023-07-20T10:11:08;35.10;69.50
46159;DHT22;31888;44.512;26.104;2023-07-20T10:13:38;34.90;69.40
46159;DHT22;31888;44.512;26.104;2023-07-20T10:16:07;35.10;69.70
46159;DHT22;31888;44.512;26.104;2023-07-20T10:18:38;35.20;70.00
46159;DHT22;31888;44.512;26.104;2023-07-20T10:21:06;35.30;69.50
46159;DHT22;31888;44.512;26.104;2023-07-20T10:23:35;35.50;68.80
46159;DHT22;31888;44.512;26.104;2023-07-20T10:26:01;35.50;67.70
46159;DHT22;31888;44.512;26.104;2023-07-20T10:28:25;35.40;67.00
46159;DHT22;31888;44.512;26.104;2023-07-20T10:30:50;35.20;67.00
46159;DHT22;31888;44.512;26.104;2023-07-20T10:33:17;35.30;67.50
46159;DHT22;31888;44.512;26.104;2023-07-20T10:35:51;35.30;68.60
46159;DHT22;31888;44.512;26.104;2023-07-20T10:38:15;35.20;67.30
46159;DHT22;31888;44.512;26.104;2023-07-20T10:40:39;35.20;67.30
46159;DHT22;31888;44.512;26.104;2023-07-20T10:43:05;35.20;66.80
46159;DHT22;31888;44.512;26.104;2023-07-20T10:45:48;35.30;66.40
46159;DHT22;31888;44.512;26.104;2023-07-20T10:48:15;35.30;66.50
46159;DHT22;31888;44.512;26.104;2023-07-20T10:50:40;35.30;66.30
46159;DHT22;31888;44.512;26.104;2023-07-20T10:53:09;35.30;66.00
46159;DHT22;31888;44.512;26.104;2023-07-20T10:55:33;35.30;66.20
46159;DHT22;31888;44.512;26.104;2023-07-20T10:58:08;35.40;66.40
46159;DHT22;31888;44.512;26.104;2023-07-20T11:00:32;35.40;66.90
46159;DHT22;31888;44.512;26.104;2023-07-20T11:02:58;35.20;66.90
46159;DHT22;31888;44.512;26.104;2023-07-20T11:05:37;35.30;67.50
46159;DHT22;31888;44.512;26.104;2023-07-20T11:08:09;35.30;65.90
46159;DHT22;31888;44.512;26.104;2023-07-20T11:10:34;35.30;65.40
46159;DHT22;31888;44.512;26.104;2023-07-20T11:13:23;35.30;66.30
46159;DHT22;31888;44.512;26.104;2023-07-20T11:16:00;35.20;66.80
46159;DHT22;31888;44.512;26.104;2023-07-20T11:18:26;34.90;67.30
46159;DHT22;31888;44.512;26.104;2023-07-20T11:20:52;35.00;68.30
46159;DHT22;31888;44.512;26.104;2023-07-20T11:23:17;35.20;67.80
46159;DHT22;31888;44.512;26.104;2023-07-20T11:25:39;35.20;66.50
46159;DHT22;31888;44.512;26.104;2023-07-20T11:28:07;35.30;67.20
46159;DHT22;31888;44.512;26.104;2023-07-20T11:30:33;35.40;66.50
46159;DHT22;31888;44.512;26.104;2023-07-20T11:32:58;35.50;66.40
46159;DHT22;31888;44.512;26.104;2023-07-20T11:35:21;35.60;66.70
46159;DHT22;31888;44.512;26.104;2023-07-20T11:37:47;35.50;66.20
46159;DHT22;31888;44.512;26.104;2023-07-20T11:40:11;35.60;65.50
46159;DHT22;31888;44.512;26.104;2023-07-20T11:42:35;35.70;65.70
46159;DHT22;31888;44.512;26.104;2023-07-20T11:45:03;35.70;65.10
46159;DHT22;31888;44.512;26.104;2023-07-20T11:47:29;35.80;65.10
46159;DHT22;31888;44.512;26.104;2023-07-20T11:49:53;35.90;64.80
46159;DHT22;31888;44.512;26.104;2023-07-20T11:52:17;35.90;63.90
46159;DHT22;31888;44.512;26.104;2023-07-20T11:54:43;35.70;64.80
46159;DHT22;31888;44.512;26.104;2023-07-20T11:57:16;35.70;64.70
46159;DHT22;31888;44.512;26.104;2023-07-20T11:59:52;35.70;65.00
46159;DHT22;31888;44.512;26.104;2023-07-20T12:02:17;35.90;64.20
46159;DHT22;31888;44.512;26.104;2023-07-20T12:04:41;36.00;63.90
46159;DHT22;31888;44.512;26.104;2023-07-20T12:07:07;36.00;63.60
46159;DHT22;31888;44.512;26.104;2023-07-20T12:09:31;36.10;63.90
46159;DHT22;31888;44.512;26.104;2023-07-20T12:12:14;36.10;63.70
46159;DHT22;31888;44.512;26.104;2023-07-20T12:14:38;36.20;63.50
46159;DHT22;31888;44.512;26.104;2023-07-20T12:17:02;35.90;63.70
46159;DHT22;31888;44.512;26.104;2023-07-20T12:19:26;36.00;63.20
46159;DHT22;31888;44.512;26.104;2023-07-20T12:21:50;36.20;62.80
46159;DHT22;31888;44.512;26.104;2023-07-20T12:24:14;36.40;63.30
46159;DHT22;31888;44.512;26.104;2023-07-20T12:26:38;36.60;62.40
46159;DHT22;31888;44.512;26.104;2023-07-20T12:29:04;36.70;63.00
46159;DHT22;31888;44.512;26.104;2023-07-20T12:31:28;36.40;63.30
46159;DHT22;31888;44.512;26.104;2023-07-20T12:33:52;36.50;62.50
46159;DHT22;31888;44.512;26.104;2023-07-20T12:36:17;36.60;63.10
46159;DHT22;31888;44.512;26.104;2023-07-20T12:38:42;36.20;63.10
46159;DHT22;31888;44.512;26.104;2023-07-20T12:41:06;36.30;62.80
46159;DHT22;31888;44.512;26.104;2023-07-20T12:43:29;36.00;62.80
46159;DHT22;31888;44.512;26.104;2023-07-20T12:45:56;35.90;63.40
46159;DHT22;31888;44.512;26.104;2023-07-20T12:48:20;35.80;63.80
46159;DHT22;31888;44.512;26.104;2023-07-20T12:50:44;35.90;63.70
46159;DHT22;31888;44.512;26.104;2023-07-20T12:53:08;35.90;63.50
46159;DHT22;31888;44.512;26.104;2023-07-20T12:55:33;36.20;63.40
46159;DHT22;31888;44.512;26.104;2023-07-20T12:57:57;36.40;62.60
46159;DHT22;31888;44.512;26.104;2023-07-20T13:00:21;36.50;62.20
46159;DHT22;31888;44.512;26.104;2023-07-20T13:02:47;36.50;62.20
46159;DHT22;31888;44.512;26.104;2023-07-20T13:05:11;36.60;62.20
46159;DHT22;31888;44.512;26.104;2023-07-20T13:07:36;36.70;61.70
46159;DHT22;31888;44.512;26.104;2023-07-20T13:10:09;36.80;61.30
46159;DHT22;31888;44.512;26.104;2023-07-20T13:12:34;36.50;61.30
46159;DHT22;31888;44.512;26.104;2023-07-20T13:14:59;36.60;61.50
46159;DHT22;31888;44.512;26.104;2023-07-20T13:17:24;36.60;61.50
46159;DHT22;31888;44.512;26.104;2023-07-20T13:19:50;36.20;62.80
46159;DHT22;31888;44.512;26.104;2023-07-20T13:22:14;36.10;62.40
46159;DHT22;31888;44.512;26.104;2023-07-20T13:24:38;35.90;62.70
46159;DHT22;31888;44.512;26.104;2023-07-20T13:27:02;35.90;62.50
46159;DHT22;31888;44.512;26.104;2023-07-20T13:29:27;36.10;62.30
46159;DHT22;31888;44.512;26.104;2023-07-20T13:31:51;36.10;62.30
46159;DHT22;31888;44.512;26.104;2023-07-20T13:34:17;36.30;61.90
46159;DHT22;31888;44.512;26.104;2023-07-20T13:36:42;36.30;62.20
46159;DHT22;31888;44.512;26.104;2023-07-20T13:39:07;36.50;61.70
46159;DHT22;31888;44.512;26.104;2023-07-20T13:41:31;36.50;61.20
46159;DHT22;31888;44.512;26.104;2023-07-20T13:43:57;36.30;62.00
46159;DHT22;31888;44.512;26.104;2023-07-20T13:46:21;36.60;61.80
46159;DHT22;31888;44.512;26.104;2023-07-20T13:49:05;36.70;61.20
46159;DHT22;31888;44.512;26.104;2023-07-20T13:51:34;36.40;62.30
46159;DHT22;31888;44.512;26.104;2023-07-20T13:54:00;36.10;62.50
46159;DHT22;31888;44.512;26.104;2023-07-20T13:56:44;36.10;62.20
46159;DHT22;31888;44.512;26.104;2023-07-20T13:59:08;35.80;62.00
46159;DHT22;31888;44.512;26.104;2023-07-20T14:01:34;35.10;63.90
46159;DHT22;31888;44.512;26.104;2023-07-20T14:04:00;34.10;66.60
46159;DHT22;31888;44.512;26.104;2023-07-20T14:06:29;33.50;68.20
46159;DHT22;31888;44.512;26.104;2023-07-20T14:08:53;33.30;68.80
46159;DHT22;31888;44.512;26.104;2023-07-20T14:11:19;32.70;69.70
46159;DHT22;31888;44.512;26.104;2023-07-20T14:13:46;32.20;71.10
46159;DHT22;31888;44.512;26.104;2023-07-20T14:16:10;31.80;72.10
46159;DHT22;31888;44.512;26.104;2023-07-20T14:18:35;31.20;75.00
46159;DHT22;31888;44.512;26.104;2023-07-20T14:20:59;31.10;81.10
46159;DHT22;31888;44.512;26.104;2023-07-20T14:23:25;30.60;78.40
46159;DHT22;31888;44.512;26.104;2023-07-20T14:25:49;29.80;83.60
46159;DHT22;31888;44.512;26.104;2023-07-20T14:28:14;29.40;85.10
46159;DHT22;31888;44.512;26.104;2023-07-20T14:30:39;28.60;87.60
46159;DHT22;31888;44.512;26.104;2023-07-20T14:33:03;27.70;90.20
46159;DHT22;31888;44.512;26.104;2023-07-20T14:35:27;27.10;92.20
46159;DHT22;31888;44.512;26.104;2023-07-20T14:37:51;27.20;92.20
46159;DHT22;31888;44.512;26.104;2023-07-20T14:40:15;27.40;92.60
46159;DHT22;31888;44.512;26.104;2023-07-20T14:42:39;27.00;95.00
46159;DHT22;31888;44.512;26.104;2023-07-20T14:45:05;26.50;96.40
46159;DHT22;31888;44.512;26.104;2023-07-20T14:47:30;25.30;99.90
46159;DHT22;31888;44.512;26.104;2023-07-20T14:49:58;24.70;99.90
46159;DHT22;31888;44.512;26.104;2023-07-20T14:52:22;24.30;99.90
46159;DHT22;31888;44.512;26.104;2023-07-20T14:54:50;24.20;99.90
46159;DHT22;31888;44.512;26.104;2023-07-20T14:57:14;24.20;99.90
46159;DHT22;31888;44.512;26.104;2023-07-20T14:59:39;24.30;99.90
46159;DHT22;31888;44.512;26.104;2023-07-20T15:02:06;24.40;99.90
46159;DHT22;31888;44.512;26.104;2023-07-20T15:04:30;24.60;99.90
46159;DHT22;31888;44.512;26.104;2023-07-20T15:06:53;24.80;99.90
46159;DHT22;31888;44.512;26.104;2023-07-20T15:09:18;25.00;99.90